Time;durP1;ratioP1;P1;durP2;ratioP2;P2;SDS_P1;SDS_P2;PMS_P1;PMS_P2;Temp;Humidity;BMP_temperature;BMP_pressure;BME280_temperature;BME280_humidity;BME280_pressure;Samples;Min_cycle;Max_cycle;Signal;HPM_P1;HPM_P2
2021/06/16 00:01:03;;;;;;;;;;;20.20;99.90;;;;;;5074828;28;19904;-79
2021/06/16 00:03:29;;;;;;;;;;;20.20;99.90;;;;;;5073300;28;19904;-79
2021/06/16 00:05:54;;;;;;;;;;;20.20;99.90;;;;;;5074633;28;19911;-79
2021/06/16 00:08:19;;;;;;;;;;;20.30;99.90;;;;;;5072835;28;19916;-78
2021/06/16 00:10:45;;;;;;;;;;;20.20;99.90;;;;;;5073095;28;19911;-78
2021/06/16 00:13:11;;;;;;;;;;;20.20;99.90;;;;;;5073008;28;19928;-78
2021/06/16 00:15:38;;;;;;;;;;;20.10;99.90;;;;;;5073198;28;19911;-79
2021/06/16 00:18:04;;;;;;;;;;;20.10;99.90;;;;;;5072840;28;19904;-79
2021/06/16 00:20:30;;;;;;;;;;;20.10;99.90;;;;;;5072654;28;19961;-79
2021/06/16 00:22:56;;;;;;;;;;;20.10;99.90;;;;;;5073069;28;19904;-79
2021/06/16 00:25:22;;;;;;;;;;;20.10;99.90;;;;;;5074427;28;19904;-79
2021/06/16 00:27:47;;;;;;;;;;;20.10;99.90;;;;;;5073124;28;20275;-79
2021/06/16 00:30:13;;;;;;;;;;;19.90;99.90;;;;;;5072805;28;19959;-79
2021/06/16 00:32:40;;;;;;;;;;;19.80;99.90;;;;;;5073080;28;19904;-79
2021/06/16 00:35:06;;;;;;;;;;;19.70;99.90;;;;;;5073400;28;19950;-79
2021/06/16 00:37:33;;;;;;;;;;;19.70;99.90;;;;;;5073281;28;19905;-79
2021/06/16 00:39:59;;;;;;;;;;;19.60;99.90;;;;;;5074259;28;19905;-78
2021/06/16 00:42:25;;;;;;;;;;;19.60;99.90;;;;;;5074057;28;19904;-79
2021/06/16 00:44:51;;;;;;;;;;;19.60;99.90;;;;;;5072882;28;19919;-79
2021/06/16 00:47:17;;;;;;;;;;;19.50;99.90;;;;;;5074369;28;19904;-79
2021/06/16 00:49:42;;;;;;;;;;;19.40;99.90;;;;;;5072321;28;19915;-79
2021/06/16 00:52:08;;;;;;;;;;;19.30;99.90;;;;;;5072773;28;19946;-79
2021/06/16 00:54:34;;;;;;;;;;;19.30;99.90;;;;;;5074438;28;19904;-79
2021/06/16 00:57:00;;;;;;;;;;;19.20;99.90;;;;;;5072784;28;19904;-79
2021/06/16 00:59:27;;;;;;;;;;;19.10;99.90;;;;;;5072415;28;19905;-79
2021/06/16 01:01:53;;;;;;;;;;;19.10;99.90;;;;;;5072664;28;19912;-79
2021/06/16 01:04:21;;;;;;;;;;;19.00;99.90;;;;;;5072666;28;19904;-78
2021/06/16 01:06:54;;;;;;;;;;;19.00;99.90;;;;;;5074046;28;20325;-79
2021/06/16 01:09:33;;;;;;;;;;;19.00;99.90;;;;;;5072567;28;20356;-78
2021/06/16 01:12:25;;;;;;;;;;;19.00;99.90;;;;;;5072623;28;19905;-79
2021/06/16 01:14:52;;;;;;;;;;;19.00;99.90;;;;;;5058215;28;19993;-79
2021/06/16 01:17:22;;;;;;;;;;;19.00;99.90;;;;;;5072615;28;19911;-79
2021/06/16 01:19:58;;;;;;;;;;;19.00;99.90;;;;;;5073074;28;19904;-78
2021/06/16 01:22:44;;;;;;;;;;;18.90;99.90;;;;;;5072808;28;19904;-79
2021/06/16 01:25:30;;;;;;;;;;;19.00;99.90;;;;;;5072765;28;20170;-79
2021/06/16 01:27:56;;;;;;;;;;;19.10;99.90;;;;;;5071933;28;19914;-79
2021/06/16 01:30:23;;;;;;;;;;;19.10;99.90;;;;;;5072593;28;19995;-78
2021/06/16 01:32:49;;;;;;;;;;;19.10;99.90;;;;;;5073771;28;19909;-79
2021/06/16 01:35:15;;;;;;;;;;;19.00;99.90;;;;;;5072786;28;19904;-78
2021/06/16 01:37:41;;;;;;;;;;;19.00;99.90;;;;;;5072871;28;19911;-79
2021/06/16 01:40:06;;;;;;;;;;;19.00;99.90;;;;;;5074318;28;20357;-78
2021/06/16 01:42:32;;;;;;;;;;;19.00;99.90;;;;;;5073285;28;19908;-79
2021/06/16 01:44:59;;;;;;;;;;;18.90;99.90;;;;;;5072717;28;20117;-78
2021/06/16 01:47:25;;;;;;;;;;;18.90;99.90;;;;;;5073098;28;19909;-79
2021/06/16 01:49:55;;;;;;;;;;;18.90;99.90;;;;;;5074156;28;19904;-78
2021/06/16 01:52:21;;;;;;;;;;;18.80;99.90;;;;;;5073092;28;20374;-78
2021/06/16 01:54:46;;;;;;;;;;;18.80;99.90;;;;;;5072430;28;19904;-79
2021/06/16 01:57:12;;;;;;;;;;;18.80;99.90;;;;;;5072736;28;19977;-79
2021/06/16 01:59:39;;;;;;;;;;;18.80;99.90;;;;;;5073744;28;19904;-79
2021/06/16 02:02:05;;;;;;;;;;;18.80;99.90;;;;;;5072649;28;19950;-79
2021/06/16 02:04:32;;;;;;;;;;;18.80;99.90;;;;;;5074562;28;19904;-78
2021/06/16 02:07:06;;;;;;;;;;;18.80;99.90;;;;;;5073739;28;19927;-79
2021/06/16 02:09:33;;;;;;;;;;;18.80;99.90;;;;;;5072827;28;20291;-78
2021/06/16 02:11:59;;;;;;;;;;;18.80;99.90;;;;;;5072778;28;20348;-79
2021/06/16 02:14:25;;;;;;;;;;;18.80;99.90;;;;;;5072763;28;19905;-79
2021/06/16 02:17:07;;;;;;;;;;;18.90;99.90;;;;;;5073091;28;19905;-79
2021/06/16 02:19:33;;;;;;;;;;;18.90;99.90;;;;;;5072258;28;19911;-79
2021/06/16 02:21:59;;;;;;;;;;;18.90;99.90;;;;;;5072444;28;19931;-78
2021/06/16 02:24:25;;;;;;;;;;;18.80;99.90;;;;;;5072641;28;19914;-79
2021/06/16 02:26:51;;;;;;;;;;;18.70;99.90;;;;;;5072293;28;19905;-79
2021/06/16 02:29:17;;;;;;;;;;;18.70;99.90;;;;;;5071834;28;19994;-79
2021/06/16 02:31:43;;;;;;;;;;;18.80;99.90;;;;;;5075513;28;19916;-78
2021/06/16 02:34:10;;;;;;;;;;;18.70;99.90;;;;;;5076473;28;19996;-79
2021/06/16 02:36:37;;;;;;;;;;;18.70;99.90;;;;;;5076033;28;19911;-78
2021/06/16 02:39:04;;;;;;;;;;;18.70;99.90;;;;;;5076014;28;20318;-78
2021/06/16 02:41:30;;;;;;;;;;;18.70;99.90;;;;;;5075795;28;19905;-78
2021/06/16 02:43:56;;;;;;;;;;;18.70;99.90;;;;;;5076902;28;19915;-79
2021/06/16 02:46:22;;;;;;;;;;;18.70;99.90;;;;;;5075659;28;20486;-79
2021/06/16 02:48:49;;;;;;;;;;;18.70;99.90;;;;;;5075773;28;20304;-79
2021/06/16 02:51:15;;;;;;;;;;;18.60;99.90;;;;;;5075617;28;19904;-78
2021/06/16 02:53:41;;;;;;;;;;;18.60;99.90;;;;;;5075331;28;19904;-79
2021/06/16 02:56:08;;;;;;;;;;;18.60;99.90;;;;;;5075418;28;19911;-79
2021/06/16 02:58:35;;;;;;;;;;;18.50;99.90;;;;;;5075629;28;19962;-79
2021/06/16 03:01:02;;;;;;;;;;;18.50;99.90;;;;;;5076674;28;19904;-79
2021/06/16 03:03:27;;;;;;;;;;;18.50;99.90;;;;;;5075246;28;19944;-79
2021/06/16 03:05:54;;;;;;;;;;;18.50;99.90;;;;;;5075147;28;19915;-79
2021/06/16 03:08:24;;;;;;;;;;;18.50;99.90;;;;;;5075949;28;19916;-79
2021/06/16 03:10:50;;;;;;;;;;;18.50;99.90;;;;;;5074035;28;20366;-79
2021/06/16 03:13:17;;;;;;;;;;;18.40;99.90;;;;;;5075337;28;19905;-79
2021/06/16 03:15:45;;;;;;;;;;;18.40;99.90;;;;;;5075315;28;19905;-79
2021/06/16 03:18:11;;;;;;;;;;;18.40;99.90;;;;;;5073779;28;19905;-78
2021/06/16 03:20:38;;;;;;;;;;;18.40;99.90;;;;;;5073918;28;19904;-79
2021/06/16 03:23:04;;;;;;;;;;;18.50;99.90;;;;;;5074287;28;19954;-78
2021/06/16 03:25:29;;;;;;;;;;;18.40;99.90;;;;;;5074101;28;19904;-79
2021/06/16 03:27:55;;;;;;;;;;;18.40;99.90;;;;;;5075084;28;19961;-78
2021/06/16 03:30:22;;;;;;;;;;;18.40;99.90;;;;;;5073990;28;20383;-80
2021/06/16 03:32:49;;;;;;;;;;;18.40;99.90;;;;;;5075093;28;20279;-79
2021/06/16 03:35:15;;;;;;;;;;;18.40;99.90;;;;;;5073900;28;20356;-78
2021/06/16 03:37:41;;;;;;;;;;;18.40;99.90;;;;;;5074036;28;19905;-78
2021/06/16 03:40:07;;;;;;;;;;;18.50;99.90;;;;;;5074845;28;19974;-78
2021/06/16 03:42:33;;;;;;;;;;;18.40;99.90;;;;;;5072454;28;19953;-78
2021/06/16 03:45:02;;;;;;;;;;;18.50;99.90;;;;;;5073644;28;19916;-79
2021/06/16 03:47:28;;;;;;;;;;;18.50;99.90;;;;;;5073556;28;19905;-79
2021/06/16 03:49:55;;;;;;;;;;;18.60;99.90;;;;;;5073603;28;20057;-79
2021/06/16 03:52:21;;;;;;;;;;;18.70;99.90;;;;;;5073468;28;20256;-80
2021/06/16 03:54:47;;;;;;;;;;;18.70;99.90;;;;;;5073561;28;19916;-79
2021/06/16 03:57:13;;;;;;;;;;;18.80;99.90;;;;;;5072920;28;19939;-79
2021/06/16 03:59:40;;;;;;;;;;;18.80;99.90;;;;;;5073015;28;20267;-78
2021/06/16 04:02:05;;;;;;;;;;;18.80;99.90;;;;;;5074147;28;20370;-78
2021/06/16 04:04:32;;;;;;;;;;;18.80;99.90;;;;;;5072777;28;19908;-79
2021/06/16 04:06:57;;;;;;;;;;;18.90;99.90;;;;;;5072904;28;19904;-79
2021/06/16 04:09:23;;;;;;;;;;;19.10;99.90;;;;;;5074059;28;19912;-79
2021/06/16 04:11:49;;;;;;;;;;;19.10;99.90;;;;;;5073145;28;19904;-79
2021/06/16 04:14:15;;;;;;;;;;;19.20;99.90;;;;;;5072552;28;19939;-78
2021/06/16 04:16:43;;;;;;;;;;;19.30;99.90;;;;;;5072691;28;20279;-78
2021/06/16 04:19:09;;;;;;;;;;;19.40;99.90;;;;;;5072493;28;19904;-79
2021/06/16 04:21:35;;;;;;;;;;;19.40;99.90;;;;;;5073826;28;19949;-78
2021/06/16 04:24:00;;;;;;;;;;;19.50;99.90;;;;;;5073916;28;19904;-79
2021/06/16 04:26:26;;;;;;;;;;;19.70;99.90;;;;;;5072457;28;19904;-79
2021/06/16 04:28:51;;;;;;;;;;;19.70;99.90;;;;;;5072510;28;19908;-78
2021/06/16 04:31:17;;;;;;;;;;;19.70;99.90;;;;;;5072419;28;19905;-78
2021/06/16 04:33:42;;;;;;;;;;;19.90;99.90;;;;;;5072258;28;19909;-79
2021/06/16 04:36:08;;;;;;;;;;;20.10;99.90;;;;;;5072507;28;20003;-78
2021/06/16 04:38:34;;;;;;;;;;;20.20;99.90;;;;;;5072429;28;20291;-79
2021/06/16 04:41:00;;;;;;;;;;;20.70;99.90;;;;;;5072086;28;19991;-79
2021/06/16 04:43:26;;;;;;;9.18;5.43;;;21.90;99.90;;;;;;5071763;28;20359;-79
2021/06/16 04:45:51;;;;;;;8.80;5.30;;;22.50;99.90;;;;;;5070781;28;20032;-79
2021/06/16 04:48:17;;;;;;;;;;;21.90;99.90;;;;;;5071287;28;20036;-77
2021/06/16 04:50:42;;;;;;;;;;;22.60;99.90;;;;;;5071493;28;20379;-78
2021/06/16 04:53:08;;;;;;;;;;;24.20;99.90;;;;;;5070283;28;20038;-78
2021/06/16 04:55:33;;;;;;;;;;;24.60;99.90;;;;;;5070593;28;19904;-79
2021/06/16 04:57:59;;;;;;;8.50;5.50;;;24.70;99.90;;;;;;5070889;28;20360;-79
2021/06/16 05:00:24;;;;;;;6.20;4.95;;;24.90;99.90;;;;;;5070407;28;20047;-78
2021/06/16 05:02:59;;;;;;;7.60;4.90;;;24.60;99.90;;;;;;5070351;28;20007;-79
2021/06/16 05:05:26;;;;;;;7.03;5.50;;;23.70;99.90;;;;;;5070350;28;20040;-79
2021/06/16 05:07:52;;;;;;;;;;;23.10;99.90;;;;;;5071866;28;19999;-79
2021/06/16 05:10:17;;;;;;;7.60;5.60;;;22.80;99.90;;;;;;5071481;28;20074;-79
2021/06/16 05:12:43;;;;;;;6.90;5.40;;;22.90;99.90;;;;;;5070453;28;20003;-79
2021/06/16 05:15:11;;;;;;;7.80;5.10;;;23.60;99.90;;;;;;5070450;28;19908;-78
2021/06/16 05:17:38;;;;;;;6.50;5.25;;;24.20;99.90;;;;;;5083127;28;20375;-79
2021/06/16 05:20:05;;;;;;;11.30;5.77;;;25.20;99.90;;;;;;5089823;28;20042;-79
2021/06/16 05:22:31;;;;;;;8.00;5.85;;;25.70;99.90;;;;;;5089960;28;20429;-79
2021/06/16 05:24:58;;;;;;;;;;;26.60;99.90;;;;;;5090665;28;20039;-79
2021/06/16 05:27:24;;;;;;;;;;;26.90;99.90;;;;;;5090414;28;20073;-80
2021/06/16 05:29:51;;;;;;;;;;;26.50;99.90;;;;;;5091439;28;20071;-78
2021/06/16 05:32:17;;;;;;;10.20;5.60;;;26.00;99.90;;;;;;5090618;28;20024;-79
2021/06/16 05:34:42;;;;;;;9.50;6.60;;;26.50;99.90;;;;;;5092934;28;20125;-80
2021/06/16 05:37:08;;;;;;;7.00;5.80;;;28.20;99.90;;;;;;5094823;28;19915;-81
2021/06/16 05:39:34;;;;;;;8.53;6.37;;;29.80;99.90;;;;;;5093603;28;20032;-81
2021/06/16 05:42:00;;;;;;;6.43;5.60;;;30.50;99.90;;;;;;5093814;28;20028;-80
2021/06/16 05:44:26;;;;;;;7.40;5.67;;;31.10;99.90;;;;;;5094417;28;20040;-80
2021/06/16 05:46:52;;;;;;;8.00;6.00;;;30.60;99.90;;;;;;5092793;28;20501;-79
2021/06/16 05:49:17;;;;;;;6.57;5.50;;;29.70;99.90;;;;;;5078437;28;20029;-79
2021/06/16 05:51:43;;;;;;;6.73;5.70;;;28.80;99.90;;;;;;5083736;28;20372;-82
2021/06/16 05:54:11;;;;;;;7.65;6.15;;;27.70;99.90;;;;;;5073852;28;20368;-79
2021/06/16 05:56:38;;;;;;;10.15;6.60;;;27.40;99.90;;;;;;5090644;28;20147;-80
2021/06/16 05:59:04;;;;;;;8.35;6.10;;;27.70;99.90;;;;;;5089750;28;19908;-80
2021/06/16 06:01:30;;;;;;;10.45;7.30;;;27.10;99.90;;;;;;5090926;28;20349;-81
2021/06/16 06:03:56;;;;;;;11.00;6.50;;;27.00;99.90;;;;;;5090488;28;20060;-80
2021/06/16 06:06:21;;;;;;;;;;;27.40;99.90;;;;;;5089839;28;19904;-79
2021/06/16 06:08:47;;;;;;;12.07;6.53;;;27.40;99.90;;;;;;5073433;28;20024;-81
2021/06/16 06:11:12;;;;;;;9.63;6.70;;;27.40;99.90;;;;;;5090661;28;20548;-80
2021/06/16 06:13:38;;;;;;;9.97;6.37;;;26.80;99.90;;;;;;5094890;28;20016;-81
2021/06/16 06:16:04;;;;;;;8.23;5.43;;;26.60;99.90;;;;;;5094568;28;20479;-80
2021/06/16 06:18:29;;;;;;;8.15;7.07;;;25.90;99.90;;;;;;5094823;28;20170;-80
2021/06/16 06:20:55;;;;;;;8.37;5.93;;;25.90;99.90;;;;;;5094445;28;20065;-80
2021/06/16 06:23:21;;;;;;;10.60;6.30;;;25.90;99.90;;;;;;5094407;28;20372;-81
2021/06/16 06:25:46;;;;;;;7.47;6.03;;;26.50;99.90;;;;;;5083871;28;20097;-81
2021/06/16 06:28:12;;;;;;;10.77;6.70;;;27.00;99.90;;;;;;5074332;28;20029;-81
2021/06/16 06:30:37;;;;;;;8.70;6.20;;;28.40;99.90;;;;;;5074007;28;20537;-82
2021/06/16 06:33:04;;;;;;;11.50;7.10;;;29.30;99.90;;;;;;5073921;28;20033;-81
2021/06/16 06:35:29;;;;;;;9.10;6.57;;;29.60;99.90;;;;;;5073932;28;20468;-82
2021/06/16 06:37:55;;;;;;;8.13;5.70;;;29.80;99.90;;;;;;5075177;28;20043;-80
2021/06/16 06:40:20;;;;;;;13.77;6.40;;;29.70;99.90;;;;;;5073952;28;20028;-80
2021/06/16 06:42:46;;;;;;;9.50;5.47;;;30.00;99.90;;;;;;5073987;28;20028;-80
2021/06/16 06:45:12;;;;;;;6.57;5.57;;;30.70;99.90;;;;;;5073563;28;20028;-80
2021/06/16 06:47:37;;;;;;;9.97;5.33;;;30.60;99.90;;;;;;5073936;28;20036;-81
2021/06/16 06:50:10;;;;;;;9.53;5.73;;;30.50;99.90;;;;;;5073335;28;20127;-80
2021/06/16 06:52:36;;;;;;;10.73;5.50;;;30.60;99.90;;;;;;5075321;28;20434;-80
2021/06/16 06:55:01;;;;;;;16.53;5.07;;;30.80;99.90;;;;;;5073559;28;20020;-79
2021/06/16 06:57:27;;;;;;;5.93;4.50;;;30.80;99.90;;;;;;5074038;28;20539;-79
2021/06/16 06:59:52;;;;;;;8.43;5.17;;;31.00;99.90;;;;;;5074524;28;20201;-80
2021/06/16 07:02:18;;;;;;;6.97;4.97;;;30.60;99.90;;;;;;5073675;28;20025;-80
2021/06/16 07:04:43;;;;;;;6.87;4.80;;;30.40;99.90;;;;;;5074564;28;20063;-79
2021/06/16 07:07:09;;;;;;;6.47;4.60;;;30.00;99.90;;;;;;5073520;28;20063;-79
2021/06/16 07:09:34;;;;;;;7.10;5.47;;;29.40;99.90;;;;;;5073060;28;20109;-80
2021/06/16 07:12:00;;;;;;;7.70;4.65;;;29.00;99.90;;;;;;5074702;28;20428;-79
2021/06/16 07:14:25;;;;;;;12.17;5.40;;;28.20;99.90;;;;;;5075363;28;20050;-79
2021/06/16 07:16:51;;;;;;;4.47;4.07;;;28.90;99.90;;;;;;5074668;28;20024;-80
2021/06/16 07:19:16;;;;;;;8.17;4.57;;;28.70;99.90;;;;;;5073252;28;19911;-80
2021/06/16 07:21:42;;;;;;;11.00;5.90;;;28.40;99.90;;;;;;5074550;28;19936;-80
2021/06/16 07:24:09;;;;;;;6.50;4.83;;;27.60;99.90;;;;;;5075444;28;20165;-80
2021/06/16 07:26:35;;;;;;;8.98;5.32;;;27.40;99.90;;;;;;5083822;28;20311;-80
2021/06/16 07:29:01;;;;;;;9.57;5.43;;;27.90;99.90;;;;;;5094340;28;19908;-80
2021/06/16 07:31:27;;;;;;;9.07;5.70;;;27.90;99.90;;;;;;5093437;28;20002;-80
2021/06/16 07:33:52;;;;;;;9.35;4.85;;;27.80;99.90;;;;;;5093266;28;20467;-79
2021/06/16 07:36:18;;;;;;;;;;;28.20;99.90;;;;;;5093811;28;19914;-80
2021/06/16 07:38:43;;;;;;;;;;;29.00;99.90;;;;;;5093121;28;20136;-80
2021/06/16 07:41:09;;;;;;;;;;;30.00;99.90;;;;;;5077620;28;20131;-80
2021/06/16 07:43:34;;;;;;;;;;;30.30;99.90;;;;;;5071500;28;20044;-80
2021/06/16 07:46:00;;;;;;;;;;;31.20;99.90;;;;;;5072066;28;20036;-78
2021/06/16 07:48:25;;;;;;;;;;;31.50;99.90;;;;;;5071699;28;20508;-80
2021/06/16 07:50:50;;;;;;;;;;;31.00;99.90;;;;;;5087535;28;20130;-80
2021/06/16 07:53:16;;;;;;;;;;;30.60;99.80;;;;;;5093084;28;20039;-80
2021/06/16 07:55:41;;;;;;;;;;;30.70;99.90;;;;;;5092166;28;20024;-78
2021/06/16 07:58:07;;;;;;;;;;;30.50;99.90;;;;;;5092349;28;20039;-78
2021/06/16 08:00:34;;;;;;;;;;;30.50;99.90;;;;;;5092454;28;20039;-78
2021/06/16 08:02:59;;;;;;;;;;;30.90;99.80;;;;;;5092183;28;20057;-78
2021/06/16 08:05:25;;;;;;;;;;;30.40;99.90;;;;;;5091841;28;20036;-78
2021/06/16 08:07:50;;;;;;;;;;;30.00;99.90;;;;;;5094128;28;20035;-76
2021/06/16 08:10:15;;;;;;;;;;;29.40;99.90;;;;;;5091456;28;20059;-79
2021/06/16 08:12:41;;;;;;;;;;;29.60;99.90;;;;;;5091136;28;20035;-77
2021/06/16 08:15:07;;;;;;;;;;;29.30;99.90;;;;;;5091278;28;20531;-79
2021/06/16 08:17:33;;;;;;;;;;;29.70;99.90;;;;;;5091858;28;20454;-79
2021/06/16 08:19:58;;;;;;;;;;;30.10;99.90;;;;;;5092207;28;20043;-79
2021/06/16 08:22:24;;;;;;;;;;;30.40;99.90;;;;;;5092271;28;20100;-78
2021/06/16 08:24:49;;;;;;;;;;;30.30;99.90;;;;;;5092985;28;20042;-78
2021/06/16 08:27:15;;;;;;;;;;;29.70;99.90;;;;;;5082269;28;20035;-78
2021/06/16 08:29:40;;;;;;;;;;;29.80;99.90;;;;;;5072744;28;20032;-78
2021/06/16 08:32:06;;;;;;;;;;;30.20;99.90;;;;;;5071114;28;20550;-78
2021/06/16 08:34:31;;;;;;;;;;;30.30;99.90;;;;;;5074110;28;20406;-79
2021/06/16 08:36:57;;;;;;;;;;;31.10;97.20;;;;;;5075306;28;20058;-78
2021/06/16 08:39:23;;;;;;;;;;;31.60;98.90;;;;;;5073961;28;20053;-79
2021/06/16 08:41:49;;;;;;;;;;;33.00;95.60;;;;;;5074020;28;19915;-80
2021/06/16 08:44:15;;;;;;;;;;;34.90;94.40;;;;;;5074737;28;20048;-80
2021/06/16 08:46:40;;;;;;;;;;;36.10;93.10;;;;;;5075761;28;20031;-78
2021/06/16 08:49:06;;;;;;;;;;;36.40;85.10;;;;;;5073614;28;20036;-79
2021/06/16 08:51:32;;;;;;;;;;;36.50;90.00;;;;;;5073260;28;20016;-80
2021/06/16 08:53:58;;;;;;;;;;;35.70;86.30;;;;;;5074036;28;20377;-78
2021/06/16 08:56:23;;;;;;;;;;;34.50;82.80;;;;;;5074084;28;19930;-78
2021/06/16 08:58:49;;;;;;;;;;;33.10;87.80;;;;;;5074012;28;19958;-79
2021/06/16 09:01:15;;;;;;;;;;;33.80;89.70;;;;;;5074013;28;20037;-79
2021/06/16 09:03:41;;;;;;;;;;;34.30;85.00;;;;;;5073522;28;20153;-80
2021/06/16 09:06:08;;;;;;;;;;;34.80;85.80;;;;;;5072743;28;20028;-79
2021/06/16 09:08:49;;;;;;;;;;;34.10;84.80;;;;;;5074389;28;20038;-78
2021/06/16 09:11:14;;;;;;;;;;;33.70;89.50;;;;;;5071348;28;20020;-79
2021/06/16 09:13:41;;;;;;;;;;;33.30;78.70;;;;;;5072581;28;19904;-78
2021/06/16 09:16:23;;;;;;;;;;;33.40;82.60;;;;;;5072631;28;19904;-78
2021/06/16 09:18:48;;;;;;;;;;;33.10;81.10;;;;;;5071923;28;20048;-78
2021/06/16 09:21:14;;;;;;;;;;;32.40;83.50;;;;;;5074254;28;20381;-78
2021/06/16 09:23:41;;;;;;;;;;;32.50;86.90;;;;;;5075350;28;20041;-78
2021/06/16 09:26:07;;;;;;;;;;;32.10;85.00;;;;;;5073267;28;20033;-78
2021/06/16 09:28:34;;;;;;;;;;;32.70;86.40;;;;;;5072625;28;20464;-78
2021/06/16 09:31:00;;;;;;;;;;;32.50;79.70;;;;;;5074305;28;20032;-79
2021/06/16 09:33:26;;;;;;;;;;;32.90;79.80;;;;;;5075863;28;19904;-78
2021/06/16 09:35:52;;;;;;;;;;;34.20;78.60;;;;;;5073238;28;20028;-78
2021/06/16 09:38:22;;;;;;;;;;;34.80;75.40;;;;;;5072132;28;20095;-78
2021/06/16 09:40:48;;;;;;;;;;;35.70;76.40;;;;;;5075538;28;20157;-79
2021/06/16 09:43:14;;;;;;;;;;;36.60;76.90;;;;;;5076974;28;20023;-79
2021/06/16 09:45:41;;;;;;;;;;;37.10;72.10;;;;;;5076582;28;20096;-79
2021/06/16 09:48:45;;;;;;;;;;;36.70;73.70;;;;;;5076004;28;19908;-79
2021/06/16 09:51:10;;;;;;;;;;;37.30;71.80;;;;;;5018453;28;20035;-78
2021/06/16 09:53:55;;;;;;;;;;;37.60;72.40;;;;;;5018319;28;20022;-78
2021/06/16 09:56:20;;;;;;;;;;;38.20;66.80;;;;;;5060269;28;20028;-80
2021/06/16 09:58:46;;;;;;;;;;;38.00;66.80;;;;;;5085451;28;19940;-79
2021/06/16 10:01:12;;;;;;;;;;;37.60;68.80;;;;;;5086750;28;19911;-82
2021/06/16 10:03:37;;;;;;;;;;;37.50;66.70;;;;;;5084643;28;20035;-81
2021/06/16 10:06:06;;;;;;;;;;;38.20;67.70;;;;;;5085303;28;20097;-81
2021/06/16 10:08:32;;;;;;;;;;;38.10;65.20;;;;;;5084258;28;20047;-81
2021/06/16 10:10:58;;;;;;;;;;;38.00;65.00;;;;;;5087390;28;20045;-79
2021/06/16 10:13:26;;;;;;;;;;;37.50;64.50;;;;;;5085584;28;19911;-79
2021/06/16 10:15:52;;;;;;;;;;;37.40;64.10;;;;;;5086076;28;20097;-78
2021/06/16 10:18:17;;;;;;;;;;;36.70;69.70;;;;;;5086654;28;19931;-77
2021/06/16 10:20:43;;;;;;;3.20;1.90;;;37.00;69.20;;;;;;5085866;28;20033;-80
2021/06/16 10:23:11;;;;;;;2.50;1.87;;;38.00;68.50;;;;;;5086948;28;20135;-79
2021/06/16 10:25:37;;;;;;;3.97;2.30;;;38.20;66.40;;;;;;5095064;28;20140;-80
2021/06/16 10:28:05;;;;;;;5.32;2.10;;;38.40;66.40;;;;;;5091538;28;20078;-80
2021/06/16 10:30:41;;;;;;;2.72;1.83;;;38.80;63.40;;;;;;5089115;28;20013;-79
2021/06/16 10:33:25;;;;;;;7.70;2.60;;;38.60;65.80;;;;;;5090881;28;20028;-80
2021/06/16 10:36:12;;;;;;;3.83;1.65;;;39.00;68.40;;;;;;5092666;28;20537;-79
2021/06/16 10:38:40;;;;;;;3.80;2.08;;;38.20;60.90;;;;;;5093111;28;20522;-79
2021/06/16 10:41:06;;;;;;;7.53;2.08;;;38.10;62.00;;;;;;5090531;28;20451;-81
2021/06/16 10:43:33;;;;;;;5.15;1.60;;;38.90;63.40;;;;;;5089176;28;20025;-79
2021/06/16 10:46:02;;;;;;;2.15;1.95;;;38.80;60.50;;;;;;5091908;28;20025;-80
2021/06/16 10:48:56;;;;;;;5.72;1.88;;;38.80;62.20;;;;;;5093806;28;20550;-80
2021/06/16 10:51:36;;;;;;;3.20;1.98;;;38.90;61.50;;;;;;5090591;28;20028;-80
2021/06/16 10:54:18;;;;;;;2.40;1.90;;;39.40;60.30;;;;;;5090686;28;20041;-78
2021/06/16 10:56:54;;;;;;;1.73;1.63;;;39.30;62.30;;;;;;5090715;28;20415;-80
2021/06/16 10:59:42;;;;;;;1.90;1.70;;;39.40;59.40;;;;;;5092975;28;20031;-80
2021/06/16 11:02:08;;;;;;;1.88;1.35;;;38.90;59.50;;;;;;5085927;28;20020;-80
2021/06/16 11:04:36;;;;;;;1.77;1.38;;;38.80;59.00;;;;;;5083338;28;20040;-80
2021/06/16 11:07:02;;;;;;;2.22;1.33;;;38.30;62.10;;;;;;5087038;28;20035;-81
2021/06/16 11:09:47;;;;;;;;;;;38.10;60.70;;;;;;5093672;28;20032;-79
2021/06/16 11:12:13;;;;;;;1.55;1.30;;;37.70;58.30;;;;;;5081706;28;19904;-79
2021/06/16 11:14:47;;;;;;;2.30;1.73;;;37.30;57.20;;;;;;5094283;28;20021;-80
2021/06/16 11:17:33;;;;;;;3.35;1.83;;;37.20;61.40;;;;;;5084418;28;20024;-79
2021/06/16 11:20:05;;;;;;;1.85;1.65;;;36.70;59.90;;;;;;5084366;28;20078;-80
2021/06/16 11:22:32;;;;;;;;;;;36.20;60.00;;;;;;5083586;28;20035;-80
2021/06/16 11:25:19;;;;;;;1.70;1.30;;;36.00;65.00;;;;;;5084988;28;19904;-80
2021/06/16 11:27:56;;;;;;;7.07;1.58;;;35.20;65.10;;;;;;5084238;28;20035;-79
2021/06/16 11:30:33;;;;;;;1.45;1.35;;;34.50;65.10;;;;;;5085411;28;20468;-79
2021/06/16 11:33:20;;;;;;;3.85;1.65;;;34.50;63.30;;;;;;5084831;28;20055;-79
2021/06/16 11:35:46;;;;;;;;;;;34.40;69.30;;;;;;5083932;28;20388;-79
2021/06/16 11:38:24;;;;;;;;;;;34.30;66.10;;;;;;5083719;28;19911;-78
2021/06/16 11:40:50;;;;;;;;;;;34.00;67.50;;;;;;5082919;28;19950;-78
2021/06/16 11:43:33;;;;;;;;;;;34.20;68.90;;;;;;5085014;28;20306;-80
2021/06/16 11:46:00;;;;;;;;;;;34.30;65.40;;;;;;5083329;28;19934;-80
2021/06/16 11:48:25;;;;;;;;;;;34.00;60.90;;;;;;5083333;28;20378;-80
2021/06/16 11:50:51;;;;;;;;;;;34.40;65.20;;;;;;5084140;28;19904;-79
2021/06/16 11:53:23;;;;;;;;;;;34.30;67.30;;;;;;5082185;28;19916;-81
2021/06/16 11:55:49;;;;;;;1.90;1.40;;;34.40;64.50;;;;;;5081685;28;20112;-82
2021/06/16 11:58:29;;;;;;;1.73;1.63;;;34.40;66.10;;;;;;5083976;28;20021;-79
2021/06/16 12:01:06;;;;;;;2.58;1.52;;;34.30;66.20;;;;;;5082921;28;20291;-79
2021/06/16 12:03:31;;;;;;;;;;;34.30;69.30;;;;;;5079924;28;20024;-81
2021/06/16 12:06:01;;;;;;;;;;;34.20;65.60;;;;;;5082081;28;19905;-84
2021/06/16 12:08:26;;;;;;;;;;;34.20;65.30;;;;;;5084127;28;19909;-79
2021/06/16 12:10:51;;;;;;;;;;;34.20;62.30;;;;;;5084331;28;19915;-81
2021/06/16 12:13:17;;;;;;;;;;;34.30;65.10;;;;;;5082588;28;20275;-81
2021/06/16 12:15:43;;;;;;;;;;;34.20;64.90;;;;;;5081761;28;20011;-81
2021/06/16 12:18:09;;;;;;;;;;;34.20;63.60;;;;;;5081963;28;19904;-79
2021/06/16 12:20:37;;;;;;;;;;;34.40;65.20;;;;;;5083125;28;20374;-81
2021/06/16 12:23:21;;;;;;;;;;;34.40;66.40;;;;;;5084612;28;20299;-79
2021/06/16 12:25:47;;;;;;;;;;;34.40;59.40;;;;;;5084289;28;19951;-77
2021/06/16 12:28:14;;;;;;;;;;;34.40;60.50;;;;;;5082313;28;19908;-79
2021/06/16 12:30:40;;;;;;;;;;;34.10;64.50;;;;;;5082322;28;20279;-79
2021/06/16 12:33:20;;;;;;;;;;;34.30;66.90;;;;;;5088006;28;19908;-80
2021/06/16 12:35:55;;;;;;;;;;;34.40;62.20;;;;;;5102277;28;19908;-79
2021/06/16 12:38:33;;;;;;;;;;;34.40;60.50;;;;;;5102468;28;20550;-79
2021/06/16 12:40:59;;;;;;;3.17;1.45;;;34.10;65.30;;;;;;5103577;28;20048;-78
2021/06/16 12:43:26;;;;;;;;;;;34.30;66.40;;;;;;5102948;28;20024;-82
2021/06/16 12:45:55;;;;;;;;;;;34.50;65.60;;;;;;5102184;28;19915;-81
2021/06/16 12:48:31;;;;;;;;;;;34.60;63.90;;;;;;5103703;28;20434;-80
2021/06/16 12:50:57;;;;;;;;;;;34.80;66.20;;;;;;5085081;28;19938;-80
2021/06/16 12:53:23;;;;;;;;;;;34.90;64.70;;;;;;5102762;28;19904;-78
2021/06/16 12:55:49;;;;;;;;;;;34.90;66.80;;;;;;5102597;28;19910;-78
2021/06/16 12:58:14;;;;;;;;;;;34.80;64.90;;;;;;5102008;28;19904;-79
2021/06/16 13:00:40;;;;;;;;;;;34.70;65.50;;;;;;5100548;28;19936;-79
2021/06/16 13:03:13;;;;;;;;;;;34.60;66.50;;;;;;5102459;28;20378;-81
2021/06/16 13:05:39;;;;;;;;;;;34.70;61.50;;;;;;5103395;28;19904;-79
2021/06/16 13:08:05;;;;;;;;;;;34.80;66.10;;;;;;5098445;28;19936;-81
2021/06/16 13:10:36;;;;;;;;;;;34.70;65.90;;;;;;5080322;28;20321;-80
2021/06/16 13:13:05;;;;;;;;;;;34.60;63.60;;;;;;5083311;28;19930;-79
2021/06/16 13:15:37;;;;;;;;;;;34.60;67.80;;;;;;5082109;28;19904;-80
2021/06/16 13:18:03;;;;;;;;;;;34.80;66.10;;;;;;5080249;28;20256;-78
2021/06/16 13:20:36;;;;;;;;;;;34.70;67.30;;;;;;5080505;28;19904;-79
2021/06/16 13:23:12;;;;;;;;;;;34.70;67.50;;;;;;5079080;28;19934;-79
2021/06/16 13:25:40;;;;;;;;;;;34.50;67.90;;;;;;5079332;28;19926;-80
2021/06/16 13:28:06;;;;;;;;;;;34.50;63.90;;;;;;5078941;28;19909;-78
2021/06/16 13:30:41;;;;;;;;;;;34.40;72.10;;;;;;5079166;28;20362;-80
2021/06/16 13:33:10;;;;;;;;;;;34.60;66.40;;;;;;5079323;28;19912;-79
2021/06/16 13:35:36;;;;;;;;;;;34.70;70.90;;;;;;5079691;28;25045;-81
2021/06/16 13:38:02;;;;;;;;;;;34.80;63.00;;;;;;5079117;28;20318;-78
2021/06/16 13:40:27;;;;;;;;;;;34.60;65.70;;;;;;5080209;28;24066;-79
2021/06/16 13:42:55;;;;;;;;;;;34.70;65.90;;;;;;5080273;28;19908;-80
2021/06/16 13:45:23;;;;;;;;;;;34.50;65.30;;;;;;5082776;28;20080;-80
2021/06/16 13:47:49;;;;;;;;;;;34.50;68.50;;;;;;5080618;28;20352;-78
2021/06/16 13:50:15;;;;;;;;;;;34.70;65.50;;;;;;5081749;28;19994;-81
2021/06/16 13:52:41;;;;;;;;;;;34.50;65.40;;;;;;5085511;28;19915;-78